createdAt,value
2018-12-22T00:00:20.226Z,9.10
2018-12-22T00:02:48.543Z,9.00
2018-12-22T00:05:19.227Z,9.00
2018-12-22T00:07:47.701Z,9.00
2018-12-22T00:10:15.915Z,8.90
2018-12-22T00:12:44.280Z,8.90
2018-12-22T00:15:12.547Z,8.80
2018-12-22T00:17:40.825Z,8.80
2018-12-22T00:20:09.202Z,8.80
2018-12-22T00:22:37.450Z,8.80
2018-12-22T00:25:06.907Z,8.80
2018-12-22T00:27:35.201Z,8.80
2018-12-22T00:30:04.179Z,8.70
2018-12-22T00:32:32.498Z,8.80
2018-12-22T00:35:00.907Z,8.70
2018-12-22T00:37:29.176Z,8.70
2018-12-22T00:39:57.466Z,8.70
2018-12-22T00:42:25.736Z,8.70
2018-12-22T00:44:54.016Z,8.70
2018-12-22T00:47:22.272Z,8.70
2018-12-22T00:49:50.542Z,8.70
2018-12-22T00:52:18.783Z,8.70
2018-12-22T00:54:47.066Z,8.70
2018-12-22T00:57:15.292Z,8.70
2018-12-22T00:59:43.608Z,8.60
2018-12-22T01:02:11.874Z,8.60
2018-12-22T01:04:40.248Z,8.60
2018-12-22T01:07:08.516Z,8.60
2018-12-22T01:09:36.842Z,8.60
2018-12-22T01:12:05.098Z,8.60
2018-12-22T01:14:33.370Z,8.60
2018-12-22T01:17:01.649Z,8.60
2018-12-22T01:19:29.910Z,8.60
2018-12-22T01:21:58.243Z,8.60
2018-12-22T01:24:26.563Z,8.60
2018-12-22T01:26:54.994Z,8.60
2018-12-22T01:29:23.366Z,8.60
2018-12-22T01:31:51.627Z,8.60
2018-12-22T01:34:20.061Z,8.60
2018-12-22T01:36:51.609Z,8.60
2018-12-22T01:39:20.591Z,8.60
2018-12-22T01:41:49.059Z,8.50
2018-12-22T01:44:17.464Z,8.50
2018-12-22T01:46:45.738Z,8.50
2018-12-22T01:49:13.994Z,8.40
2018-12-22T01:51:42.736Z,8.40
2018-12-22T01:54:10.991Z,8.40
2018-12-22T01:56:39.529Z,8.30
2018-12-22T01:59:08.327Z,8.30
2018-12-22T02:01:36.587Z,8.30
2018-12-22T02:04:05.489Z,8.20
2018-12-22T02:06:33.776Z,8.20
2018-12-22T02:09:02.034Z,8.20
2018-12-22T02:11:30.282Z,8.20
2018-12-22T02:13:58.528Z,8.20
2018-12-22T02:16:27.029Z,8.20
2018-12-22T02:18:55.330Z,8.20
2018-12-22T02:21:23.600Z,8.10
2018-12-22T02:23:51.995Z,8.10
2018-12-22T02:26:20.298Z,8.10
2018-12-22T02:28:56.382Z,8.10
2018-12-22T02:31:19.374Z,8.10
2018-12-22T02:33:47.854Z,8.10
2018-12-22T02:36:16.163Z,8.10
2018-12-22T02:38:44.437Z,8.00
2018-12-22T02:41:12.748Z,8.00
2018-12-22T02:43:41.005Z,8.00
2018-12-22T02:46:10.335Z,8.00
2018-12-22T02:48:38.842Z,8.00
2018-12-22T02:51:07.132Z,8.00
2018-12-22T02:53:35.660Z,8.00
2018-12-22T02:56:03.923Z,8.00
2018-12-22T02:58:32.225Z,7.90
2018-12-22T03:01:00.664Z,7.90
2018-12-22T03:03:29.111Z,7.90
2018-12-22T03:05:57.615Z,7.90
2018-12-22T03:08:25.978Z,7.90
2018-12-22T03:10:54.466Z,7.90
2018-12-22T03:13:23.978Z,7.80
2018-12-22T03:15:52.221Z,7.80
2018-12-22T03:18:20.524Z,7.80
2018-12-22T03:20:48.881Z,7.80
2018-12-22T03:23:17.120Z,7.80
2018-12-22T03:25:45.803Z,7.80
2018-12-22T03:28:14.107Z,7.80
2018-12-22T03:30:42.483Z,7.80
2018-12-22T03:33:10.788Z,7.80
2018-12-22T03:35:39.194Z,7.70
2018-12-22T03:38:08.562Z,7.70
2018-12-22T03:40:36.796Z,7.70
2018-12-22T03:43:05.085Z,7.70
2018-12-22T03:45:35.437Z,7.70
2018-12-22T03:48:04.681Z,7.70
2018-12-22T03:50:33.249Z,7.70
2018-12-22T03:53:01.555Z,7.70
2018-12-22T03:55:29.830Z,7.70
2018-12-22T03:57:58.091Z,7.70
2018-12-22T04:00:26.492Z,7.70
2018-12-22T04:02:55.278Z,7.70
2018-12-22T04:05:23.625Z,7.70
2018-12-22T04:07:51.930Z,7.70
2018-12-22T04:10:20.208Z,7.70
2018-12-22T04:12:48.434Z,7.70
2018-12-22T04:15:16.983Z,7.70
2018-12-22T04:17:45.378Z,7.70
2018-12-22T04:20:13.714Z,7.60
2018-12-22T04:22:41.980Z,7.70
2018-12-22T04:25:10.815Z,7.70
2018-12-22T04:27:39.310Z,7.60
2018-12-22T04:30:07.847Z,7.60
2018-12-22T04:32:36.118Z,7.70
2018-12-22T04:35:04.932Z,7.70
2018-12-22T04:37:33.183Z,7.70
2018-12-22T04:40:01.509Z,7.70
2018-12-22T04:42:29.785Z,7.70
2018-12-22T04:44:58.064Z,7.60
2018-12-22T04:47:26.424Z,7.60
2018-12-22T04:49:54.945Z,7.60
2018-12-22T04:52:23.903Z,7.60
2018-12-22T04:54:52.366Z,7.60
2018-12-22T04:57:20.757Z,7.60
2018-12-22T04:59:49.010Z,7.60
2018-12-22T05:02:17.322Z,7.60
2018-12-22T05:04:45.674Z,7.60
2018-12-22T05:07:14.130Z,7.60
2018-12-22T05:09:42.530Z,7.60
2018-12-22T05:12:11.139Z,7.60
2018-12-22T05:14:39.384Z,7.60
2018-12-22T05:17:07.646Z,7.60
2018-12-22T05:19:35.896Z,7.60
2018-12-22T05:22:05.194Z,7.60
2018-12-22T05:24:34.439Z,7.60
2018-12-22T05:27:02.744Z,7.60
2018-12-22T05:29:31.032Z,7.70
2018-12-22T05:31:59.402Z,7.70
2018-12-22T05:34:27.707Z,7.70
2018-12-22T05:36:55.965Z,7.80
2018-12-22T05:39:24.391Z,7.80
2018-12-22T05:41:52.683Z,7.80
2018-12-22T05:44:20.960Z,7.80
2018-12-22T05:46:50.086Z,7.80
2018-12-22T05:49:18.394Z,7.80
2018-12-22T05:51:46.712Z,7.80
2018-12-22T05:54:14.974Z,7.80
2018-12-22T05:56:43.223Z,7.70
2018-12-22T05:59:11.503Z,7.70
2018-12-22T06:01:40.274Z,7.80
2018-12-22T06:04:08.573Z,7.80
2018-12-22T06:06:36.887Z,7.80
2018-12-22T06:09:06.628Z,7.80
2018-12-22T06:11:35.077Z,7.80
2018-12-22T06:15:27.848Z,7.80
2018-12-22T06:17:56.254Z,7.80
2018-12-22T06:20:24.652Z,7.80
2018-12-22T06:22:52.980Z,7.80
2018-12-22T06:25:21.440Z,7.80
2018-12-22T06:27:50.454Z,7.80
2018-12-22T06:30:19.427Z,7.80
2018-12-22T06:32:47.854Z,7.70
2018-12-22T06:35:16.179Z,7.70
2018-12-22T06:37:44.486Z,7.60
2018-12-22T06:40:12.902Z,7.60
2018-12-22T06:42:41.285Z,7.50
2018-12-22T06:45:09.570Z,7.50
2018-12-22T06:47:37.878Z,7.40
2018-12-22T06:50:06.315Z,7.40
2018-12-22T06:52:34.557Z,7.40
2018-12-22T06:55:02.847Z,7.30
2018-12-22T06:57:31.156Z,7.30
2018-12-22T06:59:59.417Z,7.30
2018-12-22T07:02:27.735Z,7.30
2018-12-22T07:04:56.423Z,7.20
2018-12-22T07:07:25.301Z,7.20
2018-12-22T07:09:53.618Z,7.20
2018-12-22T07:12:21.864Z,7.20
2018-12-22T07:14:50.471Z,7.20
2018-12-22T07:17:18.828Z,7.10
2018-12-22T07:19:47.433Z,7.10
2018-12-22T07:22:16.124Z,7.10
2018-12-22T07:24:44.416Z,7.10
2018-12-22T07:27:12.703Z,7.10
2018-12-22T07:29:40.956Z,7.10
2018-12-22T07:32:09.491Z,7.10
2018-12-22T07:34:38.027Z,7.00
2018-12-22T07:37:06.376Z,7.00
2018-12-22T07:39:34.822Z,7.00
2018-12-22T07:42:03.730Z,7.00
2018-12-22T07:44:32.023Z,7.00
2018-12-22T07:47:00.804Z,7.00
2018-12-22T07:49:29.204Z,7.00
2018-12-22T07:51:57.581Z,7.00
2018-12-22T07:54:25.855Z,7.00
2018-12-22T07:56:54.124Z,7.00
2018-12-22T07:59:22.416Z,7.00
2018-12-22T08:01:50.678Z,7.00
2018-12-22T08:04:19.415Z,7.00
2018-12-22T08:06:47.769Z,7.00
2018-12-22T08:09:16.130Z,7.00
2018-12-22T08:11:44.895Z,7.00
2018-12-22T08:14:13.143Z,7.10
2018-12-22T08:16:41.449Z,7.00
2018-12-22T08:19:18.595Z,7.10
2018-12-22T08:21:47.016Z,7.00
2018-12-22T08:24:15.850Z,7.00
2018-12-22T08:26:44.212Z,7.00
2018-12-22T08:29:13.097Z,7.00
2018-12-22T08:31:42.087Z,7.00
2018-12-22T08:34:10.503Z,7.00
2018-12-22T08:36:38.850Z,7.00
2018-12-22T08:39:07.499Z,7.00
2018-12-22T08:41:35.815Z,7.00
2018-12-22T08:44:04.234Z,7.00
2018-12-22T08:46:34.143Z,7.00
2018-12-22T08:49:04.009Z,7.00
2018-12-22T08:51:32.387Z,7.00
2018-12-22T08:54:00.652Z,7.10
2018-12-22T08:56:28.969Z,7.10
2018-12-22T08:58:57.383Z,7.10
2018-12-22T09:01:28.734Z,7.10
2018-12-22T09:03:57.339Z,7.10
2018-12-22T09:06:25.816Z,7.10
2018-12-22T09:08:54.087Z,7.10
2018-12-22T09:11:22.472Z,7.10
2018-12-22T09:13:51.409Z,7.10
2018-12-22T09:16:19.702Z,7.10
2018-12-22T09:18:48.059Z,7.10
2018-12-22T09:21:16.418Z,7.10
2018-12-22T09:23:45.011Z,7.10
2018-12-22T09:26:13.806Z,7.10
2018-12-22T09:28:44.211Z,7.10
2018-12-22T09:31:12.502Z,7.10
2018-12-22T09:33:40.870Z,7.10
2018-12-22T09:36:09.142Z,7.20
2018-12-22T09:38:37.760Z,7.20
2018-12-22T09:41:06.155Z,7.20
2018-12-22T09:43:34.398Z,7.20
2018-12-22T09:46:02.731Z,7.20
2018-12-22T09:48:31.059Z,7.20
2018-12-22T09:50:59.332Z,7.30
2018-12-22T09:53:27.667Z,7.30
2018-12-22T09:55:55.962Z,7.30
2018-12-22T09:58:24.301Z,7.30
2018-12-22T10:00:52.808Z,7.30
2018-12-22T10:03:21.153Z,7.30
2018-12-22T10:05:49.575Z,7.30
2018-12-22T10:08:17.958Z,7.30
2018-12-22T10:10:46.295Z,7.30
2018-12-22T10:13:15.578Z,7.30
2018-12-22T10:15:44.316Z,7.30
2018-12-22T10:18:12.733Z,7.40
2018-12-22T10:20:41.056Z,7.40
2018-12-22T10:23:09.558Z,7.40
2018-12-22T10:25:37.937Z,7.40
2018-12-22T10:28:06.248Z,7.40
2018-12-22T10:30:34.587Z,7.40
2018-12-22T10:33:03.653Z,7.40
2018-12-22T10:35:32.460Z,7.40
2018-12-22T10:38:00.846Z,7.40
2018-12-22T10:40:29.163Z,7.50
2018-12-22T10:42:57.428Z,7.50
2018-12-22T10:45:25.787Z,7.50
2018-12-22T10:47:54.096Z,7.50
2018-12-22T10:50:22.396Z,7.50
2018-12-22T10:52:50.828Z,7.60
2018-12-22T10:55:19.192Z,7.60
2018-12-22T10:57:47.490Z,7.60
2018-12-22T11:00:17.527Z,7.60
2018-12-22T11:02:45.857Z,7.60
2018-12-22T11:05:15.621Z,7.60
2018-12-22T11:07:44.363Z,7.60
2018-12-22T11:10:18.192Z,7.70
2018-12-22T11:12:46.486Z,7.70
2018-12-22T11:15:15.371Z,7.60
2018-12-22T11:17:43.770Z,7.60
2018-12-22T11:20:12.086Z,7.60
2018-12-22T11:22:40.703Z,7.50
2018-12-22T11:25:14.010Z,7.50
2018-12-22T11:27:42.525Z,7.50
2018-12-22T11:30:15.393Z,7.50
2018-12-22T11:32:43.772Z,7.60
2018-12-22T11:35:12.306Z,7.60
2018-12-22T11:37:40.568Z,7.60
2018-12-22T11:40:09.629Z,7.60
2018-12-22T11:42:38.075Z,7.60
2018-12-22T11:45:06.487Z,7.70
2018-12-22T11:47:38.743Z,7.70
2018-12-22T11:51:40.337Z,7.80
2018-12-22T11:54:08.966Z,7.90
2018-12-22T11:56:37.266Z,8.00
2018-12-22T11:59:05.661Z,8.00
2018-12-22T12:01:43.675Z,8.10
2018-12-22T12:04:11.779Z,8.10
2018-12-22T12:06:40.045Z,8.20
2018-12-22T12:09:08.843Z,8.40
2018-12-22T12:11:37.669Z,8.50
2018-12-22T12:14:06.656Z,8.50
2018-12-22T12:16:41.211Z,8.60
2018-12-22T12:19:15.250Z,8.60
2018-12-22T12:21:44.126Z,8.60
2018-12-22T12:24:12.381Z,8.50
2018-12-22T12:26:40.679Z,8.50
2018-12-22T12:29:08.976Z,8.50
2018-12-22T12:31:37.310Z,8.50
2018-12-22T12:34:05.634Z,8.40
2018-12-22T12:36:34.011Z,8.50
2018-12-22T12:39:02.314Z,8.60
2018-12-22T12:41:37.852Z,8.60
2018-12-22T12:44:06.131Z,8.70
2018-12-22T12:46:42.095Z,8.80
2018-12-22T12:49:10.442Z,8.80
2018-12-22T12:51:38.719Z,8.90
2018-12-22T12:54:07.839Z,9.10
2018-12-22T12:56:39.502Z,9.20
2018-12-22T12:59:07.830Z,9.30
2018-12-22T13:01:36.199Z,9.30
2018-12-22T13:04:04.555Z,9.40
2018-12-22T13:06:32.896Z,9.50
2018-12-22T13:09:01.199Z,9.50
2018-12-22T13:11:29.445Z,9.60
2018-12-22T13:14:02.244Z,9.50
2018-12-22T13:16:31.349Z,9.50
2018-12-22T13:18:59.652Z,9.50
2018-12-22T13:21:28.291Z,9.40
2018-12-22T13:23:56.561Z,9.30
2018-12-22T13:26:24.979Z,9.30
2018-12-22T13:28:53.282Z,9.30
2018-12-22T13:31:24.255Z,9.20
2018-12-22T13:33:52.570Z,9.20
2018-12-22T13:36:20.940Z,9.20
2018-12-22T13:39:01.480Z,9.10
2018-12-22T13:41:29.752Z,9.10
2018-12-22T13:43:57.968Z,9.00
2018-12-22T13:46:26.349Z,8.90
2018-12-22T13:48:55.072Z,8.90
2018-12-22T13:51:23.698Z,8.80
2018-12-22T13:53:52.240Z,8.80
2018-12-22T13:56:20.552Z,8.80
2018-12-22T13:58:48.853Z,8.80
2018-12-22T14:01:19.961Z,8.80
2018-12-22T14:03:48.701Z,8.80
2018-12-22T14:06:22.489Z,8.70
2018-12-22T14:08:50.866Z,8.70
2018-12-22T14:11:19.154Z,8.70
2018-12-22T14:13:48.939Z,8.80
2018-12-22T14:16:31.035Z,8.80
2018-12-22T14:19:04.071Z,8.80
2018-12-22T14:21:32.349Z,8.80
2018-12-22T14:24:37.524Z,8.80
2018-12-22T14:27:06.121Z,8.80
2018-12-22T14:29:34.480Z,8.70
2018-12-22T14:32:02.845Z,8.80
2018-12-22T14:34:35.271Z,8.80
2018-12-22T14:37:03.744Z,8.80
2018-12-22T14:39:32.020Z,8.70
2018-12-22T14:42:00.418Z,8.70
2018-12-22T14:44:29.154Z,8.70
2018-12-22T14:46:57.556Z,8.70
2018-12-22T14:49:26.236Z,8.60
2018-12-22T14:51:54.521Z,8.60
2018-12-22T14:54:22.817Z,8.60
2018-12-22T14:56:51.180Z,8.60
2018-12-22T14:59:22.059Z,8.60
2018-12-22T15:01:53.700Z,8.60
2018-12-22T15:04:22.352Z,8.60
2018-12-22T15:06:50.850Z,8.60
2018-12-22T15:09:19.197Z,8.60
2018-12-22T15:11:47.642Z,8.60
2018-12-22T15:14:15.959Z,8.60
2018-12-22T15:16:44.284Z,8.70
2018-12-22T15:19:12.596Z,8.70
2018-12-22T15:21:40.958Z,8.70
2018-12-22T15:24:12.697Z,8.70
2018-12-22T15:26:41.160Z,8.70
2018-12-22T15:29:09.913Z,8.70
2018-12-22T15:31:38.453Z,8.70
2018-12-22T15:34:06.852Z,8.80
2018-12-22T15:36:35.619Z,8.80
2018-12-22T15:39:06.666Z,8.80
2018-12-22T15:41:35.272Z,8.80
2018-12-22T15:44:03.999Z,8.80
2018-12-22T15:46:32.430Z,8.70
2018-12-22T15:49:00.811Z,8.70
2018-12-22T15:51:29.107Z,8.70
2018-12-22T15:53:57.538Z,8.70
2018-12-22T15:56:25.883Z,8.70
2018-12-22T15:58:54.500Z,8.70
2018-12-22T16:01:23.317Z,8.70
2018-12-22T16:03:51.788Z,8.70
2018-12-22T16:06:20.275Z,8.70
2018-12-22T16:08:48.562Z,8.70
2018-12-22T16:11:16.900Z,8.70
2018-12-22T16:13:45.212Z,8.70
2018-12-22T16:16:13.546Z,8.60
2018-12-22T16:18:41.847Z,8.60
2018-12-22T16:21:10.142Z,8.60
2018-12-22T16:23:38.545Z,8.60
2018-12-22T16:26:06.786Z,8.60
2018-12-22T16:28:39.524Z,8.60
2018-12-22T16:31:07.860Z,8.60
2018-12-22T16:33:36.219Z,8.60
2018-12-22T16:36:04.519Z,8.60
2018-12-22T16:38:32.783Z,8.60
2018-12-22T16:41:01.107Z,8.60
2018-12-22T16:43:29.355Z,8.60
2018-12-22T16:45:57.650Z,8.60
2018-12-22T16:48:25.939Z,8.60
2018-12-22T16:50:54.330Z,8.50
2018-12-22T16:53:22.725Z,8.50
2018-12-22T16:55:51.092Z,8.50
2018-12-22T16:58:27.960Z,8.50
2018-12-22T17:02:10.488Z,8.50
2018-12-22T17:04:38.763Z,8.50
2018-12-22T17:07:07.084Z,8.50
2018-12-22T17:09:35.354Z,8.50
2018-12-22T17:12:10.182Z,8.50
2018-12-22T17:14:38.508Z,8.40
2018-12-22T17:17:07.846Z,8.40
2018-12-22T17:19:36.203Z,8.30
2018-12-22T17:22:09.904Z,8.30
2018-12-22T17:25:01.364Z,8.30
2018-12-22T17:27:29.694Z,8.30
2018-12-22T17:29:58.061Z,8.20
2018-12-22T17:32:26.501Z,8.20
2018-12-22T17:34:54.938Z,8.20
2018-12-22T17:37:23.279Z,8.20
2018-12-22T17:39:53.513Z,8.30
2018-12-22T17:42:22.044Z,8.20
2018-12-22T17:44:50.351Z,8.20
2018-12-22T17:47:18.684Z,8.20
2018-12-22T17:49:47.038Z,8.20
2018-12-22T17:52:15.515Z,8.20
2018-12-22T17:54:43.973Z,8.20
2018-12-22T17:57:12.342Z,8.20
2018-12-22T17:59:40.594Z,8.20
2018-12-22T18:02:09.172Z,8.10
2018-12-22T18:04:37.451Z,8.10
2018-12-22T18:07:05.745Z,8.10
2018-12-22T18:09:34.170Z,8.00
2018-12-22T18:12:02.447Z,8.00
2018-12-22T18:14:30.937Z,7.90
2018-12-22T18:16:59.296Z,7.90
2018-12-22T18:19:29.206Z,7.90
2018-12-22T18:21:57.736Z,7.90
2018-12-22T18:24:27.468Z,7.80
2018-12-22T18:26:55.890Z,7.80
2018-12-22T18:29:25.001Z,7.70
2018-12-22T18:31:58.712Z,7.70
2018-12-22T18:34:27.149Z,7.70
2018-12-22T18:36:55.502Z,7.70
2018-12-22T18:39:24.018Z,7.70
2018-12-22T18:41:52.299Z,7.60
2018-12-22T18:44:20.868Z,7.60
2018-12-22T18:46:49.197Z,7.60
2018-12-22T18:49:18.123Z,7.60
2018-12-22T18:51:46.718Z,7.60
2018-12-22T18:54:15.560Z,7.60
2018-12-22T18:56:43.905Z,7.60
2018-12-22T18:59:12.563Z,7.60
2018-12-22T19:01:40.955Z,7.70
2018-12-22T19:04:09.440Z,7.70
2018-12-22T19:06:37.835Z,7.70
2018-12-22T19:09:09.934Z,7.70
2018-12-22T19:11:38.698Z,7.70
2018-12-22T19:14:07.807Z,7.70
2018-12-22T19:16:36.536Z,7.60
2018-12-22T19:19:05.066Z,7.70
2018-12-22T19:21:33.884Z,7.70
2018-12-22T19:24:02.496Z,7.60
2018-12-22T19:26:31.036Z,7.60
2018-12-22T19:28:59.420Z,7.60
2018-12-22T19:31:27.838Z,7.50
2018-12-22T19:33:56.125Z,7.60
2018-12-22T19:36:24.432Z,7.50
2018-12-22T19:38:52.856Z,7.60
2018-12-22T19:41:22.479Z,7.50
2018-12-22T19:43:51.004Z,7.50
2018-12-22T19:46:19.567Z,7.50
2018-12-22T19:48:47.858Z,7.50
2018-12-22T19:51:16.306Z,7.50
2018-12-22T19:53:46.094Z,7.50
2018-12-22T19:56:15.325Z,7.50
2018-12-22T19:58:43.890Z,7.50
2018-12-22T20:01:12.496Z,7.50
2018-12-22T20:03:41.172Z,7.50
2018-12-22T20:06:09.938Z,7.50
2018-12-22T20:08:38.261Z,7.50
2018-12-22T20:11:06.850Z,7.50
2018-12-22T20:13:35.141Z,7.50
2018-12-22T20:16:08.850Z,7.50
2018-12-22T20:18:33.744Z,7.50
2018-12-22T20:21:02.059Z,7.50
2018-12-22T20:23:30.406Z,7.50
2018-12-22T20:25:58.679Z,7.50
2018-12-22T20:28:28.303Z,7.50
2018-12-22T20:30:56.884Z,7.50
2018-12-22T20:33:25.222Z,7.50
2018-12-22T20:35:53.448Z,7.50
2018-12-22T20:38:21.751Z,7.50
2018-12-22T20:40:49.994Z,7.50
2018-12-22T20:43:18.339Z,7.60
2018-12-22T20:45:46.694Z,7.60
2018-12-22T20:48:16.256Z,7.60
2018-12-22T20:50:44.668Z,7.60
2018-12-22T20:53:13.016Z,7.60
2018-12-22T20:55:41.366Z,7.60
2018-12-22T20:58:09.659Z,7.60
2018-12-22T21:00:37.933Z,7.60
2018-12-22T21:03:06.351Z,7.60
2018-12-22T21:05:36.495Z,7.60
2018-12-22T21:08:05.492Z,7.50
2018-12-22T21:10:33.787Z,7.50
2018-12-22T21:13:02.041Z,7.50
2018-12-22T21:15:30.297Z,7.50
2018-12-22T21:17:58.683Z,7.50
2018-12-22T21:20:26.942Z,7.40
2018-12-22T21:22:55.229Z,7.40
2018-12-22T21:25:25.048Z,7.40
2018-12-22T21:27:55.058Z,7.30
2018-12-22T21:30:23.693Z,7.30
2018-12-22T21:32:53.231Z,7.30
2018-12-22T21:35:21.554Z,7.30
2018-12-22T21:37:50.637Z,7.30
2018-12-22T21:40:20.235Z,7.20
2018-12-22T21:42:50.688Z,7.20
2018-12-22T21:45:19.152Z,7.20
2018-12-22T21:47:48.350Z,7.10
2018-12-22T21:50:16.660Z,7.10
2018-12-22T21:52:45.005Z,7.10
2018-12-22T21:55:13.324Z,7.10
2018-12-22T21:57:41.728Z,7.00
2018-12-22T22:00:10.499Z,7.00
2018-12-22T22:02:38.784Z,7.00
2018-12-22T22:05:07.052Z,7.00
2018-12-22T22:07:35.339Z,7.00
2018-12-22T22:10:03.817Z,7.00
2018-12-22T22:12:32.106Z,7.00
2018-12-22T22:15:00.531Z,7.00
2018-12-22T22:17:28.778Z,7.00
2018-12-22T22:19:57.068Z,7.00
2018-12-22T22:22:25.741Z,7.00
2018-12-22T22:24:54.313Z,7.00
2018-12-22T22:27:22.752Z,7.00
2018-12-22T22:29:51.051Z,7.00
2018-12-22T22:32:19.422Z,6.90
2018-12-22T22:34:47.687Z,6.90
2018-12-22T22:37:15.938Z,6.90
2018-12-22T22:39:44.300Z,6.90
2018-12-22T22:42:12.560Z,6.90
2018-12-22T22:44:40.858Z,6.80
2018-12-22T22:47:09.199Z,6.80
2018-12-22T22:49:37.582Z,6.80
2018-12-22T22:52:05.939Z,6.80
2018-12-22T22:54:34.247Z,6.80
2018-12-22T22:57:02.509Z,6.80
2018-12-22T22:59:30.802Z,6.80
2018-12-22T23:01:59.266Z,6.80
2018-12-22T23:04:27.734Z,6.80
2018-12-22T23:06:56.109Z,6.80
2018-12-22T23:09:24.352Z,6.80
2018-12-22T23:11:52.619Z,6.80
2018-12-22T23:14:20.909Z,6.80
2018-12-22T23:16:49.174Z,6.80
2018-12-22T23:19:17.595Z,6.80
2018-12-22T23:21:45.923Z,6.90
2018-12-22T23:26:48.761Z,6.90
2018-12-22T23:29:17.045Z,6.90
2018-12-22T23:31:45.321Z,6.90
2018-12-22T23:34:13.683Z,6.90
2018-12-22T23:36:41.952Z,6.90
2018-12-22T23:39:10.215Z,7.00
2018-12-22T23:41:38.467Z,7.00
2018-12-22T23:44:06.894Z,7.00
2018-12-22T23:46:35.144Z,7.00
2018-12-22T23:49:03.399Z,7.00
2018-12-22T23:51:31.707Z,7.00
2018-12-22T23:53:59.972Z,7.00
2018-12-22T23:56:28.209Z,7.00
2018-12-22T23:58:56.472Z,7.10
